Time;durP1;ratioP1;P1;durP2;ratioP2;P2;SDS_P1;SDS_P2;PMS_P1;PMS_P2;Temp;Humidity;BMP_temperature;BMP_pressure;BME280_temperature;BME280_humidity;BME280_pressure;Samples;Min_cycle;Max_cycle;Signal;HPM_P1;HPM_P2
2021/04/30 00:00:13;;;;;;;5.28;3.40;;;12.80;65.00;;;;;;6184983;23;20075;-57
2021/04/30 00:02:41;;;;;;;7.13;3.25;;;12.80;64.90;;;;;;6208736;23;20012;-57
2021/04/30 00:05:07;;;;;;;8.02;3.08;;;12.80;64.90;;;;;;6208622;23;20056;-58
2021/04/30 00:07:33;;;;;;;6.63;3.20;;;12.80;65.00;;;;;;6185226;23;19997;-57
2021/04/30 00:09:59;;;;;;;5.75;3.05;;;12.80;64.90;;;;;;6183325;23;20056;-57
2021/04/30 00:12:25;;;;;;;4.65;3.42;;;12.80;64.90;;;;;;6185311;23;20012;-57
2021/04/30 00:14:50;;;;;;;5.15;3.28;;;12.80;64.90;;;;;;6185166;23;20001;-58
2021/04/30 00:17:16;;;;;;;11.13;3.38;;;12.80;64.90;;;;;;6186727;23;20060;-57
2021/04/30 00:19:41;;;;;;;4.80;2.95;;;12.80;65.00;;;;;;6186533;23;20016;-58
2021/04/30 00:22:07;;;;;;;7.82;3.47;;;12.80;64.90;;;;;;6187067;23;20349;-57
2021/04/30 00:24:33;;;;;;;6.28;2.80;;;12.80;64.90;;;;;;6186903;23;20076;-57
2021/04/30 00:26:58;;;;;;;7.20;3.45;;;12.80;64.90;;;;;;6186926;23;20012;-57
2021/04/30 00:29:24;;;;;;;5.50;3.55;;;12.80;65.00;;;;;;6186521;23;20000;-58
2021/04/30 00:31:50;;;;;;;6.82;3.47;;;12.80;64.80;;;;;;6186733;23;20005;-58
2021/04/30 00:34:16;;;;;;;12.25;3.70;;;12.80;64.90;;;;;;6186687;23;20048;-57
2021/04/30 00:36:42;;;;;;;9.98;3.50;;;12.80;64.90;;;;;;6186956;23;20044;-57
2021/04/30 00:39:07;;;;;;;5.93;3.53;;;12.80;64.80;;;;;;6186729;23;20289;-57
2021/04/30 00:41:33;;;;;;;14.32;3.95;;;12.80;64.80;;;;;;6187149;23;20030;-57
2021/04/30 00:44:06;;;;;;;8.18;4.00;;;12.80;64.80;;;;;;6210332;23;20351;-57
2021/04/30 00:46:32;;;;;;;6.65;3.88;;;12.80;64.80;;;;;;6187234;23;20028;-57
2021/04/30 00:48:58;;;;;;;9.65;3.65;;;12.80;64.80;;;;;;6186445;23;20001;-57
2021/04/30 00:51:24;;;;;;;9.73;3.97;;;12.80;64.80;;;;;;6186935;23;20293;-58
2021/04/30 00:53:49;;;;;;;7.88;3.83;;;12.80;65.50;;;;;;6186791;23;20056;-58
2021/04/30 00:56:16;;;;;;;7.63;3.67;;;12.80;64.70;;;;;;6186729;23;20044;-57
2021/04/30 00:58:41;;;;;;;5.07;3.58;;;12.80;64.70;;;;;;6186436;23;20047;-57
2021/04/30 01:01:07;;;;;;;6.38;3.40;;;12.80;64.80;;;;;;6186244;23;20001;-57
2021/04/30 01:03:35;;;;;;;6.72;3.65;;;12.80;64.70;;;;;;6210309;23;20088;-57
2021/04/30 01:06:01;;;;;;;8.55;4.00;;;12.80;64.60;;;;;;6209956;23;20008;-57
2021/04/30 01:08:27;;;;;;;6.03;3.85;;;12.70;64.60;;;;;;6186177;23;20001;-57
2021/04/30 01:10:52;;;;;;;8.18;4.18;;;12.80;64.60;;;;;;6186557;23;20076;-57
2021/04/30 01:13:18;;;;;;;5.45;3.65;;;12.80;64.60;;;;;;6186521;23;20013;-57
2021/04/30 01:15:43;;;;;;;6.90;3.83;;;12.80;64.50;;;;;;6186161;23;20549;-57
2021/04/30 01:18:09;;;;;;;7.53;4.00;;;12.80;64.60;;;;;;6186453;23;20001;-57
2021/04/30 01:20:35;;;;;;;8.02;4.28;;;12.80;64.50;;;;;;6185895;23;20013;-57
2021/04/30 01:23:00;;;;;;;8.00;4.13;;;12.80;64.50;;;;;;6186395;23;20012;-57
2021/04/30 01:25:28;;;;;;;9.25;3.88;;;12.80;64.50;;;;;;6209784;23;20001;-57
2021/04/30 01:27:57;;;;;;;7.40;3.47;;;12.80;64.50;;;;;;6186039;23;20306;-57
2021/04/30 01:30:26;;;;;;;6.20;3.53;;;12.80;64.40;;;;;;6186154;23;20080;-57
2021/04/30 01:32:52;;;;;;;6.47;3.72;;;12.70;64.40;;;;;;6186420;23;20017;-57
2021/04/30 01:35:25;;;;;;;12.32;4.57;;;12.80;64.40;;;;;;6186192;23;19997;-57
2021/04/30 01:37:52;;;;;;;5.40;3.85;;;12.80;64.40;;;;;;6184679;23;20005;-57
2021/04/30 01:40:24;;;;;;;8.48;3.70;;;12.80;64.40;;;;;;6185948;23;20415;-57
2021/04/30 01:43:07;;;;;;;8.98;4.38;;;12.70;64.30;;;;;;6186267;23;20023;-57
2021/04/30 01:45:39;;;;;;;6.65;3.92;;;12.80;64.30;;;;;;6209598;23;20009;-58
2021/04/30 01:48:11;;;;;;;7.68;4.22;;;12.80;64.40;;;;;;6186603;23;20001;-57
2021/04/30 01:50:36;;;;;;;8.40;4.25;;;12.70;64.30;;;;;;6185784;23;20005;-58
2021/04/30 01:53:02;;;;;;;7.20;4.20;;;12.80;64.30;;;;;;6186293;23;20021;-57
2021/04/30 01:55:29;;;;;;;6.43;3.67;;;12.80;64.20;;;;;;6185902;23;20334;-57
2021/04/30 01:57:55;;;;;;;6.90;3.90;;;12.80;64.30;;;;;;6186303;23;20389;-57
2021/04/30 02:00:24;;;;;;;5.75;3.80;;;12.80;64.20;;;;;;6185670;23;20423;-57
2021/04/30 02:02:51;;;;;;;9.77;4.50;;;12.70;64.20;;;;;;6186106;23;20004;-58
2021/04/30 02:05:19;;;;;;;5.65;3.42;;;12.70;64.20;;;;;;6185892;23;20282;-57
2021/04/30 02:07:45;;;;;;;6.03;3.88;;;12.80;64.20;;;;;;6185710;23;20345;-57
2021/04/30 02:10:15;;;;;;;8.95;3.80;;;12.80;64.30;;;;;;6185560;23;20001;-57
2021/04/30 02:12:41;;;;;;;6.82;4.57;;;12.70;64.20;;;;;;6185917;23;20055;-57
2021/04/30 02:15:09;;;;;;;7.38;4.22;;;12.70;64.10;;;;;;6185881;23;20409;-57
2021/04/30 02:17:35;;;;;;;10.88;4.35;;;12.80;64.20;;;;;;6186068;23;20051;-57
2021/04/30 02:20:01;;;;;;;8.05;4.88;;;12.80;64.20;;;;;;6185285;23;20033;-57
2021/04/30 02:22:27;;;;;;;9.90;4.40;;;12.70;64.10;;;;;;6209195;23;20016;-58
2021/04/30 02:24:52;;;;;;;10.18;4.70;;;12.70;64.10;;;;;;6185853;23;20091;-57
2021/04/30 02:27:18;;;;;;;6.18;3.83;;;12.70;64.10;;;;;;6186200;23;19998;-57
2021/04/30 02:29:44;;;;;;;7.72;4.00;;;12.70;64.10;;;;;;6185429;23;20015;-57
2021/04/30 02:32:12;;;;;;;9.13;3.60;;;12.70;64.10;;;;;;6209114;23;20004;-57
2021/04/30 02:34:37;;;;;;;7.35;4.28;;;12.70;64.00;;;;;;6182414;23;20093;-57
2021/04/30 02:37:03;;;;;;;10.85;4.30;;;12.70;64.10;;;;;;6186100;23;20028;-57
2021/04/30 02:39:29;;;;;;;10.90;4.93;;;12.70;64.10;;;;;;6185195;23;20009;-57
2021/04/30 02:41:55;;;;;;;4.97;3.67;;;12.70;64.00;;;;;;6185698;23;20005;-57
2021/04/30 02:44:20;;;;;;;7.57;4.18;;;12.70;64.00;;;;;;6185712;23;20285;-57
2021/04/30 02:46:46;;;;;;;7.20;4.05;;;12.70;64.00;;;;;;6184215;23;20001;-57
2021/04/30 02:49:15;;;;;;;8.30;4.03;;;12.70;64.00;;;;;;6184772;23;20005;-57
2021/04/30 02:51:41;;;;;;;8.35;4.30;;;12.70;64.00;;;;;;6185877;23;20001;-57
2021/04/30 02:54:07;;;;;;;9.25;4.55;;;12.70;63.90;;;;;;6185816;23;20017;-57
2021/04/30 02:56:35;;;;;;;9.13;5.15;;;12.70;64.00;;;;;;6183984;23;20001;-57
2021/04/30 02:59:03;;;;;;;8.73;4.95;;;12.70;64.00;;;;;;6208717;23;20009;-57
2021/04/30 03:01:29;;;;;;;5.75;3.88;;;12.70;64.00;;;;;;6208935;23;20001;-57
2021/04/30 03:03:55;;;;;;;8.73;3.85;;;12.70;63.90;;;;;;6185792;23;20005;-58
2021/04/30 03:06:21;;;;;;;7.18;4.47;;;12.70;64.00;;;;;;6185918;23;20006;-57
2021/04/30 03:08:52;;;;;;;8.82;4.60;;;12.70;63.90;;;;;;6185416;23;20033;-57
2021/04/30 03:11:17;;;;;;;7.28;4.55;;;12.70;64.00;;;;;;6184830;23;20008;-57
2021/04/30 03:13:43;;;;;;;6.00;4.00;;;12.70;64.00;;;;;;6185787;23;20013;-57
2021/04/30 03:16:09;;;;;;;8.52;4.15;;;12.70;63.90;;;;;;6185455;23;20020;-57
2021/04/30 03:18:34;;;;;;;7.68;4.20;;;12.70;63.90;;;;;;6185053;23;20005;-57
2021/04/30 03:21:00;;;;;;;9.20;4.28;;;12.60;63.90;;;;;;6183655;23;20063;-58
2021/04/30 03:23:25;;;;;;;11.27;4.80;;;12.70;63.90;;;;;;6185442;23;20009;-57
2021/04/30 03:25:51;;;;;;;10.95;4.15;;;12.70;63.90;;;;;;6185087;23;20012;-58
2021/04/30 03:28:16;;;;;;;6.47;4.65;;;12.70;63.90;;;;;;6183565;23;20793;-58
2021/04/30 03:30:42;;;;;;;7.38;4.40;;;12.70;63.80;;;;;;6185418;23;19997;-57
2021/04/30 03:33:08;;;;;;;10.23;4.28;;;12.60;63.80;;;;;;6185377;23;20020;-57
2021/04/30 03:35:33;;;;;;;9.48;4.80;;;12.70;63.90;;;;;;6185297;23;20294;-58
2021/04/30 03:38:00;;;;;;;13.13;4.72;;;12.60;63.90;;;;;;6183940;23;20005;-57
2021/04/30 03:40:26;;;;;;;6.43;4.25;;;12.60;63.90;;;;;;6208537;23;20092;-58
2021/04/30 03:42:52;;;;;;;7.90;4.70;;;12.60;63.80;;;;;;6185532;23;20001;-57
2021/04/30 03:45:17;;;;;;;9.95;5.25;;;12.60;63.80;;;;;;6185563;23;20055;-57
2021/04/30 03:47:43;;;;;;;10.50;5.18;;;12.60;63.80;;;;;;6208924;23;20012;-58
2021/04/30 03:50:09;;;;;;;7.57;4.47;;;12.60;63.80;;;;;;6208300;23;20041;-58
2021/04/30 03:52:35;;;;;;;9.63;4.70;;;12.60;63.90;;;;;;6187613;23;20005;-57
2021/04/30 03:55:01;;;;;;;14.68;5.70;;;12.60;63.80;;;;;;6187152;23;20081;-57
2021/04/30 03:57:26;;;;;;;9.23;5.28;;;12.60;63.90;;;;;;6187302;23;20020;-57
2021/04/30 03:59:52;;;;;;;7.93;5.18;;;12.60;63.90;;;;;;6187132;23;20332;-58
2021/04/30 04:02:18;;;;;;;10.05;4.43;;;12.60;63.80;;;;;;6187046;23;20309;-57
2021/04/30 04:04:43;;;;;;;8.88;4.53;;;12.60;63.80;;;;;;6187011;23;20080;-57
2021/04/30 04:07:09;;;;;;;7.57;5.18;;;12.60;63.90;;;;;;6187287;23;20005;-57
2021/04/30 04:09:34;;;;;;;7.00;4.50;;;12.60;63.80;;;;;;6187032;23;20005;-57
2021/04/30 04:12:00;;;;;;;10.40;4.78;;;12.60;63.90;;;;;;6187147;23;20056;-57
2021/04/30 04:14:25;;;;;;;7.25;4.22;;;12.60;63.80;;;;;;6186966;23;20087;-58
2021/04/30 04:16:51;;;;;;;9.40;5.68;;;12.60;63.80;;;;;;6185440;23;20418;-57
2021/04/30 04:19:17;;;;;;;6.10;4.68;;;12.60;63.70;;;;;;6186254;23;20160;-58
2021/04/30 04:21:44;;;;;;;9.57;5.20;;;12.60;63.90;;;;;;6185583;23;20001;-57
2021/04/30 04:24:09;;;;;;;10.02;4.85;;;12.60;63.80;;;;;;6186351;23;20005;-57
2021/04/30 04:26:35;;;;;;;11.40;4.90;;;12.60;63.80;;;;;;6210273;23;20051;-57
2021/04/30 04:29:01;;;;;;;7.57;4.53;;;12.60;63.70;;;;;;6209653;23;20331;-57
2021/04/30 04:31:26;;;;;;;9.68;4.70;;;12.60;63.80;;;;;;6187039;23;19997;-57
2021/04/30 04:33:52;;;;;;;9.32;5.10;;;12.60;63.80;;;;;;6186449;23;20013;-58
2021/04/30 04:36:18;;;;;;;10.10;5.30;;;12.60;63.80;;;;;;6210429;23;20012;-57
2021/04/30 04:38:43;;;;;;;10.07;5.28;;;12.60;63.80;;;;;;6186656;23;20290;-57
2021/04/30 04:41:09;;;;;;;9.30;5.50;;;12.60;63.80;;;;;;6186679;23;20408;-57
2021/04/30 04:43:35;;;;;;;10.15;5.30;;;12.60;63.90;;;;;;6185527;23;20020;-57
2021/04/30 04:46:00;;;;;;;14.70;5.63;;;12.60;63.80;;;;;;6186975;23;20005;-57
2021/04/30 04:48:26;;;;;;;11.68;4.55;;;12.60;63.80;;;;;;6186286;23;20013;-57
2021/04/30 04:50:52;;;;;;;12.23;5.13;;;12.60;63.80;;;;;;6186647;23;20036;-57
2021/04/30 04:53:17;;;;;;;17.52;5.68;;;12.60;63.80;;;;;;6186769;23;20390;-57
2021/04/30 04:55:43;;;;;;;13.25;5.60;;;12.50;63.70;;;;;;6186674;23;19997;-58
2021/04/30 04:58:09;;;;;;;9.45;5.40;;;12.50;63.80;;;;;;6187065;23;20450;-57
2021/04/30 05:00:34;;;;;;;12.60;5.32;;;12.50;63.70;;;;;;6186150;23;20005;-57
2021/04/30 05:03:00;;;;;;;10.55;5.63;;;12.60;63.80;;;;;;6186450;23;20059;-57
2021/04/30 05:05:27;;;;;;;10.98;5.88;;;12.50;63.70;;;;;;6186451;23;20412;-58
2021/04/30 05:07:53;;;;;;;14.77;5.88;;;12.60;63.80;;;;;;6185348;23;20309;-57
2021/04/30 05:10:19;;;;;;;12.90;5.43;;;12.50;63.60;;;;;;6184467;23;20008;-57
2021/04/30 05:12:46;;;;;;;8.20;5.18;;;12.50;63.70;;;;;;6186589;23;20020;-57
2021/04/30 05:15:13;;;;;;;10.63;5.60;;;12.50;63.70;;;;;;6184913;23;20031;-57
2021/04/30 05:17:38;;;;;;;9.00;5.57;;;12.60;63.80;;;;;;6186266;23;20056;-57
2021/04/30 05:20:05;;;;;;;11.80;5.32;;;12.50;63.70;;;;;;6185951;23;20012;-58
2021/04/30 05:22:30;;;;;;;9.77;5.50;;;12.60;63.70;;;;;;6186664;23;20005;-57
2021/04/30 05:24:56;;;;;;;9.27;5.70;;;12.50;63.70;;;;;;6209488;23;20067;-57
2021/04/30 05:27:21;;;;;;;10.90;5.03;;;12.60;63.70;;;;;;6209806;23;20424;-57
2021/04/30 05:29:47;;;;;;;13.00;6.65;;;12.50;63.70;;;;;;6185876;23;20002;-57
2021/04/30 05:32:13;;;;;;;10.15;5.25;;;12.50;63.60;;;;;;6186189;23;20004;-57
2021/04/30 05:34:39;;;;;;;10.95;6.22;;;12.50;63.60;;;;;;6209351;23;20349;-57
2021/04/30 05:37:06;;;;;;;15.07;6.25;;;12.50;63.60;;;;;;6186585;23;20064;-57
2021/04/30 05:39:33;;;;;;;12.38;6.18;;;12.60;63.60;;;;;;6185770;23;20005;-57
2021/04/30 05:41:59;;;;;;;10.80;6.15;;;12.50;63.60;;;;;;6185997;23;20001;-58
2021/04/30 05:44:25;;;;;;;13.38;5.95;;;12.50;63.60;;;;;;6185908;23;20058;-58
2021/04/30 05:46:50;;;;;;;12.25;6.68;;;12.50;63.60;;;;;;6185692;23;20036;-57
2021/04/30 05:49:16;;;;;;;13.63;6.20;;;12.50;63.60;;;;;;6184511;23;20076;-58
2021/04/30 05:51:42;;;;;;;9.77;5.88;;;12.50;63.50;;;;;;6208613;23;20005;-57
2021/04/30 05:54:07;;;;;;;10.68;5.95;;;12.50;63.60;;;;;;6186022;23;20016;-57
2021/04/30 05:56:33;;;;;;;10.57;5.78;;;12.60;64.30;;;;;;6185792;23;20001;-58
2021/04/30 05:58:59;;;;;;;10.82;5.75;;;12.60;63.60;;;;;;6185421;23;20001;-57
2021/04/30 06:01:25;;;;;;;12.35;6.47;;;12.50;63.50;;;;;;6185533;23;20048;-57
2021/04/30 06:03:50;;;;;;;12.15;6.03;;;12.60;63.50;;;;;;6186001;23;20008;-57
2021/04/30 06:06:16;;;;;;;13.25;5.70;;;12.50;63.40;;;;;;6185623;23;20412;-57
2021/04/30 06:08:42;;;;;;;10.40;5.93;;;12.60;63.50;;;;;;6183870;23;20005;-57
2021/04/30 06:11:07;;;;;;;14.27;6.25;;;12.60;63.50;;;;;;6185777;23;19997;-57
2021/04/30 06:13:33;;;;;;;13.48;6.07;;;12.60;63.40;;;;;;6185245;23;20449;-58
2021/04/30 06:15:59;;;;;;;11.55;5.93;;;12.60;63.50;;;;;;6183597;23;20009;-57
2021/04/30 06:18:24;;;;;;;12.77;5.82;;;12.60;63.50;;;;;;6185204;23;20009;-58
2021/04/30 06:20:50;;;;;;;14.88;6.85;;;12.60;63.40;;;;;;6185426;23;20059;-57
2021/04/30 06:23:16;;;;;;;13.90;6.72;;;12.60;63.40;;;;;;6186193;23;20005;-58
2021/04/30 06:25:42;;;;;;;13.13;6.47;;;12.60;63.30;;;;;;6185552;23;20047;-57
2021/04/30 06:28:07;;;;;;;13.40;7.88;;;12.60;63.30;;;;;;6185682;23;20082;-58
2021/04/30 06:30:33;;;;;;;18.45;7.68;;;12.60;63.30;;;;;;6185271;23;20001;-57
2021/04/30 06:32:59;;;;;;;17.92;8.18;;;12.60;63.30;;;;;;6185452;23;20017;-58
2021/04/30 06:35:24;;;;;;;15.88;6.75;;;12.60;63.20;;;;;;6185439;23;20088;-58
2021/04/30 06:37:50;;;;;;;10.38;5.88;;;12.60;63.20;;;;;;6184064;23;20032;-57
2021/04/30 06:40:15;;;;;;;15.43;7.32;;;12.60;63.10;;;;;;6185428;23;20293;-57
2021/04/30 06:42:41;;;;;;;14.63;7.38;;;12.70;63.10;;;;;;6185420;23;20434;-57
2021/04/30 06:45:08;;;;;;;15.15;7.18;;;12.70;63.10;;;;;;6184996;23;20123;-57
2021/04/30 06:47:36;;;;;;;11.60;7.32;;;12.70;63.00;;;;;;6185003;23;20008;-57
2021/04/30 06:50:03;;;;;;;14.15;7.55;;;12.70;62.80;;;;;;6185162;23;20095;-57
2021/04/30 06:52:28;;;;;;;12.10;7.13;;;12.70;62.90;;;;;;6208981;23;20008;-57
2021/04/30 06:54:54;;;;;;;12.13;6.82;;;12.70;62.80;;;;;;6185603;23;20076;-57
2021/04/30 06:57:20;;;;;;;14.77;6.47;;;12.70;62.70;;;;;;6185542;23;20085;-57
2021/04/30 06:59:45;;;;;;;10.40;6.35;;;12.70;62.70;;;;;;6185039;23;20051;-57
2021/04/30 07:02:11;;;;;;;16.80;8.13;;;12.70;62.60;;;;;;6185258;23;20005;-58
2021/04/30 07:04:37;;;;;;;11.00;6.85;;;12.80;62.50;;;;;;6184044;23;20008;-57
2021/04/30 07:07:04;;;;;;;16.77;7.95;;;12.80;62.40;;;;;;6208847;23;20228;-57
2021/04/30 07:09:29;;;;;;;13.93;8.40;;;12.80;62.00;;;;;;6185612;23;20001;-57
2021/04/30 07:11:55;;;;;;;15.27;7.78;;;12.90;61.90;;;;;;6185524;23;20304;-57
2021/04/30 07:14:21;;;;;;;18.30;9.30;;;13.00;61.80;;;;;;6185585;23;20017;-57
2021/04/30 07:16:46;;;;;;;13.23;7.88;;;12.90;61.60;;;;;;6185229;23;20309;-57
2021/04/30 07:19:12;;;;;;;12.27;7.45;;;12.90;61.50;;;;;;6208568;23;20005;-57
2021/04/30 07:21:38;;;;;;;13.23;8.25;;;13.00;61.60;;;;;;6185303;23;20415;-57
2021/04/30 07:24:04;;;;;;;18.08;9.65;;;13.00;61.60;;;;;;6183999;23;20009;-57
2021/04/30 07:26:30;;;;;;;17.17;7.40;;;13.00;61.60;;;;;;6186712;23;20008;-57
2021/04/30 07:28:55;;;;;;;16.27;8.10;;;13.00;61.50;;;;;;6185322;23;20001;-57
2021/04/30 07:31:21;;;;;;;15.60;7.60;;;13.10;61.60;;;;;;6187669;23;20028;-57
2021/04/30 07:33:46;;;;;;;11.85;7.45;;;13.10;61.40;;;;;;6187512;23;20026;-57
2021/04/30 07:36:16;;;;;;;15.93;9.50;;;13.10;61.40;;;;;;6187434;23;20001;-57
2021/04/30 07:38:42;;;;;;;19.35;8.18;;;13.20;61.30;;;;;;6187167;23;20432;-57
2021/04/30 07:41:08;;;;;;;14.43;8.35;;;13.20;61.10;;;;;;6187194;23;20077;-57
2021/04/30 07:43:34;;;;;;;18.15;7.85;;;13.20;61.10;;;;;;6187243;23;20001;-57
2021/04/30 07:46:00;;;;;;;14.48;9.23;;;13.30;61.00;;;;;;6187481;23;20004;-57
2021/04/30 07:48:27;;;;;;;14.63;7.70;;;13.30;61.00;;;;;;6186661;23;20009;-57
2021/04/30 07:50:53;;;;;;;14.27;8.30;;;13.40;60.90;;;;;;6187199;23;19997;-57
2021/04/30 07:53:19;;;;;;;11.18;7.82;;;13.40;60.80;;;;;;6187010;23;20063;-58
2021/04/30 07:55:44;;;;;;;11.93;7.40;;;13.40;60.70;;;;;;6187144;23;20028;-57
2021/04/30 07:58:10;;;;;;;17.75;7.47;;;13.40;60.50;;;;;;6210323;23;20008;-57
2021/04/30 08:00:36;;;;;;;20.50;8.70;;;13.40;60.30;;;;;;6187297;23;20005;-57
2021/04/30 08:03:02;;;;;;;15.45;7.40;;;13.50;60.30;;;;;;6187282;23;20297;-57
2021/04/30 08:05:27;;;;;;;20.58;10.38;;;13.60;60.30;;;;;;6187158;23;20032;-57
2021/04/30 08:07:53;;;;;;;17.52;9.18;;;13.60;60.10;;;;;;6187293;23;20267;-57
2021/04/30 08:10:19;;;;;;;17.13;9.45;;;13.60;60.00;;;;;;6186834;23;20005;-57
2021/04/30 08:12:45;;;;;;;15.23;8.38;;;13.70;59.80;;;;;;6186717;23;20005;-57
2021/04/30 08:15:12;;;;;;;19.63;9.30;;;13.70;59.70;;;;;;6187047;23;20333;-57
2021/04/30 08:17:38;;;;;;;15.43;7.93;;;13.80;59.70;;;;;;6210733;23;20309;-57
2021/04/30 08:20:05;;;;;;;16.52;9.20;;;13.80;59.60;;;;;;6186766;23;20017;-57
2021/04/30 08:22:31;;;;;;;17.77;9.77;;;13.90;59.40;;;;;;6187365;23;20008;-57
2021/04/30 08:24:57;;;;;;;14.40;9.25;;;13.90;59.30;;;;;;6186951;23;20309;-57
2021/04/30 08:27:23;;;;;;;20.17;9.27;;;14.00;59.20;;;;;;6186757;23;20005;-57
2021/04/30 08:29:49;;;;;;;17.75;10.23;;;14.00;59.20;;;;;;6185058;23;20059;-57
2021/04/30 08:32:16;;;;;;;19.02;9.52;;;14.10;58.90;;;;;;6185694;23;20397;-57
2021/04/30 08:34:42;;;;;;;19.20;10.27;;;14.10;58.80;;;;;;6210305;23;20429;-57
2021/04/30 08:37:08;;;;;;;19.80;10.93;;;14.20;58.70;;;;;;6186618;23;20001;-57
2021/04/30 08:39:33;;;;;;;18.00;10.20;;;14.20;58.50;;;;;;6186770;23;20009;-57
2021/04/30 08:41:59;;;;;;;18.98;10.15;;;14.30;58.40;;;;;;6209793;23;20067;-57
2021/04/30 08:44:26;;;;;;;17.08;9.38;;;14.30;58.20;;;;;;6186898;23;20009;-57
2021/04/30 08:46:51;;;;;;;18.42;10.52;;;14.40;58.10;;;;;;6186644;23;20020;-57
2021/04/30 08:49:17;;;;;;;17.42;9.10;;;14.40;58.00;;;;;;6186719;23;20449;-57
2021/04/30 08:51:43;;;;;;;20.45;11.88;;;14.50;57.80;;;;;;6187106;23;20408;-57
2021/04/30 08:54:09;;;;;;;20.27;11.25;;;14.50;57.80;;;;;;6186875;23;20012;-57
2021/04/30 08:56:48;;;;;;;25.80;13.05;;;14.50;57.70;;;;;;6186655;23;20009;-57
2021/04/30 08:59:14;;;;;;;19.60;10.45;;;14.50;57.50;;;;;;6184432;23;20101;-57
2021/04/30 09:01:40;;;;;;;20.08;11.68;;;14.60;57.50;;;;;;6187092;23;20017;-58
2021/04/30 09:04:07;;;;;;;18.45;10.55;;;14.60;57.30;;;;;;6186533;23;20016;-58
2021/04/30 09:06:33;;;;;;;17.13;10.02;;;14.60;57.20;;;;;;6187195;23;20023;-57
2021/04/30 09:09:09;;;;;;;18.10;10.43;;;14.70;57.10;;;;;;6185685;23;20448;-58
2021/04/30 09:11:40;;;;;;;19.95;10.50;;;14.70;57.00;;;;;;6186205;23;20062;-57
2021/04/30 09:14:24;;;;;;;18.17;9.98;;;14.80;56.90;;;;;;6185981;23;20452;-58
2021/04/30 09:17:06;;;;;;;24.73;11.63;;;14.80;56.90;;;;;;6186355;23;20005;-58
2021/04/30 09:19:50;;;;;;;19.42;10.55;;;14.80;56.70;;;;;;6186089;23;20039;-58
2021/04/30 09:22:23;;;;;;;19.67;10.43;;;14.80;56.60;;;;;;6209123;23;20036;-58
2021/04/30 09:24:51;;;;;;;19.90;11.18;;;14.80;56.60;;;;;;6186211;23;20001;-58
2021/04/30 09:27:33;;;;;;;17.90;10.13;;;14.90;56.70;;;;;;6186335;23;20016;-58
2021/04/30 09:30:25;;;;;;;18.10;10.73;;;14.90;56.60;;;;;;6184060;23;20067;-58
2021/04/30 09:33:09;;;;;;;21.70;10.18;;;14.90;56.60;;;;;;6185886;23;20001;-57
2021/04/30 09:35:38;;;;;;;18.80;10.18;;;14.90;56.50;;;;;;6184994;23;20009;-58
2021/04/30 09:38:20;;;;;;;18.90;9.80;;;14.90;56.60;;;;;;6185897;23;20072;-58
2021/04/30 09:40:51;;;;;;;20.55;10.73;;;14.90;56.60;;;;;;6185900;23;20346;-58
2021/04/30 09:43:17;;;;;;;15.88;9.27;;;14.90;56.50;;;;;;6184405;23;20009;-58
2021/04/30 09:45:48;;;;;;;21.33;11.55;;;14.90;56.60;;;;;;6186325;23;20005;-58
2021/04/30 09:48:14;;;;;;;16.50;8.27;;;14.90;56.50;;;;;;6208852;23;20366;-58
2021/04/30 09:50:43;;;;;;;15.77;9.15;;;14.90;56.50;;;;;;6185984;23;20005;-58
2021/04/30 09:53:11;;;;;;;15.50;7.93;;;14.90;56.50;;;;;;6186208;23;20036;-57
2021/04/30 09:55:42;;;;;;;17.20;9.43;;;14.90;56.50;;;;;;6186114;23;20278;-58
2021/04/30 09:58:13;;;;;;;16.25;9.73;;;14.90;56.40;;;;;;6185517;23;20001;-58
2021/04/30 10:00:39;;;;;;;15.68;7.78;;;14.90;56.40;;;;;;6209121;23;20009;-58
2021/04/30 10:03:15;;;;;;;22.98;10.25;;;14.90;56.90;;;;;;6209008;23;20013;-58
2021/04/30 10:06:00;;;;;;;16.98;9.38;;;14.90;56.30;;;;;;6209272;23;20072;-58
2021/04/30 10:08:26;;;;;;;19.73;10.65;;;14.90;56.30;;;;;;6208737;23;20286;-58
2021/04/30 10:10:52;;;;;;;15.88;8.52;;;14.90;56.30;;;;;;6186303;23;20005;-58
2021/04/30 10:13:17;;;;;;;15.55;8.82;;;14.90;56.40;;;;;;6183962;23;20293;-58
2021/04/30 10:15:43;;;;;;;18.23;8.63;;;14.90;56.30;;;;;;6186292;23;20289;-58
2021/04/30 10:18:09;;;;;;;19.17;9.82;;;14.90;56.40;;;;;;6185795;23;20037;-58
2021/04/30 10:20:35;;;;;;;22.17;10.80;;;14.90;56.40;;;;;;6185596;23;20013;-58
2021/04/30 10:23:05;;;;;;;17.42;9.07;;;14.90;56.40;;;;;;6185458;23;20024;-58
2021/04/30 10:25:32;;;;;;;15.73;8.85;;;14.90;56.40;;;;;;6185723;23;20423;-57
2021/04/30 10:28:00;;;;;;;17.05;9.73;;;14.90;56.40;;;;;;6209242;23;20028;-58
2021/04/30 10:30:49;;;;;;;18.05;9.02;;;14.90;56.50;;;;;;6184692;23;20005;-58
2021/04/30 10:33:46;;;;;;;15.27;8.95;;;14.80;56.50;;;;;;6185765;23;20033;-58
2021/04/30 10:36:42;;;;;;;17.30;9.65;;;14.90;56.60;;;;;;6209267;23;20013;-58
2021/04/30 10:39:09;;;;;;;23.92;9.32;;;14.90;56.60;;;;;;6182080;23;20044;-58
2021/04/30 10:41:37;;;;;;;13.98;7.40;;;14.90;56.60;;;;;;6184616;23;20067;-58
2021/04/30 10:44:17;;;;;;;16.33;9.25;;;14.90;56.70;;;;;;6185671;23;20076;-57
2021/04/30 10:46:44;;;;;;;17.10;9.32;;;14.90;56.70;;;;;;6185785;23;20005;-58
2021/04/30 10:49:15;;;;;;;13.68;9.02;;;14.80;56.70;;;;;;6208626;23;20136;-58
2021/04/30 10:51:41;;;;;;;20.48;9.43;;;14.80;56.70;;;;;;6184189;23;20001;-58
2021/04/30 10:54:27;;;;;;;17.52;9.25;;;14.90;56.80;;;;;;6185757;23;20009;-58
2021/04/30 10:57:16;;;;;;;20.35;10.73;;;14.90;56.80;;;;;;6209142;23;20013;-58
2021/04/30 10:59:43;;;;;;;18.55;8.68;;;14.90;56.80;;;;;;6208415;23;20309;-58
2021/04/30 11:02:09;;;;;;;20.75;12.90;;;14.90;56.90;;;;;;6185650;23;20305;-58
2021/04/30 11:04:34;;;;;;;16.75;9.32;;;14.90;57.00;;;;;;6184242;23;19997;-57
2021/04/30 11:07:00;;;;;;;16.98;9.88;;;14.90;56.90;;;;;;6182433;23;20005;-58
2021/04/30 11:09:39;;;;;;;21.02;8.43;;;14.90;56.90;;;;;;6207506;23;20008;-58
2021/04/30 11:12:22;;;;;;;19.48;9.75;;;14.90;56.90;;;;;;6184916;23;20068;-58
2021/04/30 11:15:08;;;;;;;17.92;9.70;;;14.90;57.00;;;;;;6182931;23;20059;-58
2021/04/30 11:17:58;;;;;;;19.10;9.18;;;14.80;57.00;;;;;;6183649;23;20032;-58
2021/04/30 11:20:31;;;;;;;;;;;14.90;57.00;;;;;;6207555;23;20348;-57
2021/04/30 11:23:21;;;;;;;18.38;9.68;;;14.80;57.00;;;;;;6183774;23;19916;-58
2021/04/30 11:25:58;;;;;;;14.60;8.13;;;14.90;57.20;;;;;;6184560;23;20005;-57
2021/04/30 11:28:30;;;;;;;19.70;9.35;;;14.80;57.10;;;;;;6184628;23;20047;-58
2021/04/30 11:31:09;;;;;;;20.20;9.35;;;14.80;57.20;;;;;;6184468;23;20032;-58
2021/04/30 11:33:56;;;;;;;18.20;7.90;;;14.80;57.20;;;;;;6185144;23;20013;-58
2021/04/30 11:36:23;;;;;;;17.67;10.07;;;14.80;57.30;;;;;;6184727;23;20001;-58
2021/04/30 11:38:50;;;;;;;23.80;10.18;;;14.90;57.20;;;;;;6184163;23;20401;-58
2021/04/30 11:41:17;;;;;;;17.63;8.50;;;14.90;56.90;;;;;;6183514;23;20009;-55
2021/04/30 11:43:49;;;;;;;20.63;10.80;;;14.90;56.90;;;;;;6185261;23;20001;-55
2021/04/30 11:46:15;;;;;;;18.58;10.23;;;14.90;56.90;;;;;;6184723;23;20005;-55
2021/04/30 11:48:45;;;;;;;17.30;8.95;;;14.90;57.00;;;;;;6184750;23;20408;-55
2021/04/30 11:51:14;;;;;;;23.58;8.80;;;14.80;56.90;;;;;;6184739;23;20007;-56
2021/04/30 11:53:42;;;;;;;18.48;8.68;;;14.80;57.10;;;;;;6185634;23;20057;-55
2021/04/30 11:56:09;;;;;;;14.10;9.15;;;14.80;56.70;;;;;;6185081;23;19997;-56
2021/04/30 11:58:43;;;;;;;19.17;9.57;;;14.80;56.80;;;;;;6184836;23;20028;-55
2021/04/30 12:01:10;;;;;;;16.48;10.00;;;14.80;56.70;;;;;;6184913;23;20401;-55
2021/04/30 12:03:56;;;;;;;17.42;9.90;;;14.80;56.90;;;;;;6184198;23;20009;-56
2021/04/30 12:06:27;;;;;;;17.27;8.07;;;14.80;56.80;;;;;;6183065;23;20055;-55
2021/04/30 12:08:56;;;;;;;14.50;8.57;;;14.80;56.90;;;;;;6183506;23;20005;-56
2021/04/30 12:11:29;;;;;;;14.98;9.02;;;14.80;56.90;;;;;;6184721;23;20009;-55
2021/04/30 12:13:58;;;;;;;19.13;8.68;;;14.80;56.90;;;;;;6187090;23;20012;-55
2021/04/30 12:16:24;;;;;;;18.25;8.60;;;14.80;57.00;;;;;;6187008;23;20004;-56
2021/04/30 12:18:52;;;;;;;13.38;8.25;;;14.80;56.90;;;;;;6186220;23;20430;-55
2021/04/30 12:21:28;;;;;;;14.50;8.07;;;14.80;56.90;;;;;;6185905;23;20009;-56
2021/04/30 12:23:55;;;;;;;15.02;9.50;;;14.80;56.60;;;;;;6187354;23;20005;-56
2021/04/30 12:26:28;;;;;;;16.23;9.10;;;14.80;56.80;;;;;;6187151;23;20009;-57
2021/04/30 12:28:55;;;;;;;15.02;8.52;;;14.80;56.90;;;;;;6184631;23;20008;-57
2021/04/30 12:31:21;;;;;;;13.60;7.95;;;14.80;57.00;;;;;;6185768;23;20416;-57
2021/04/30 12:33:49;;;;;;;15.98;9.57;;;14.80;57.10;;;;;;6186597;23;20009;-57
2021/04/30 12:36:22;;;;;;;15.55;8.43;;;14.80;57.20;;;;;;6186927;23;20008;-57
2021/04/30 12:38:54;;;;;;;24.52;8.70;;;14.80;57.20;;;;;;6185357;23;20005;-57
2021/04/30 12:41:28;;;;;;;12.48;7.55;;;14.80;57.30;;;;;;6186818;23;20005;-57